sensor_id;sensor_type;location;lat;lon;timestamp;temperature;humidity
74809;DHT22;63338;39.544;2.596;2023-01-10T00:00:53;16.00;51.90
74809;DHT22;63338;39.544;2.596;2023-01-10T00:03:23;16.10;51.40
74809;DHT22;63338;39.544;2.596;2023-01-10T00:05:49;16.00;51.30
74809;DHT22;63338;39.544;2.596;2023-01-10T00:08:18;16.00;51.00
74809;DHT22;63338;39.544;2.596;2023-01-10T00:10:47;16.00;51.10
74809;DHT22;63338;39.544;2.596;2023-01-10T00:13:15;15.90;51.00
74809;DHT22;63338;39.544;2.596;2023-01-10T00:15:54;16.00;50.70
74809;DHT22;63338;39.544;2.596;2023-01-10T00:18:22;16.00;50.80
74809;DHT22;63338;39.544;2.596;2023-01-10T00:20:49;16.00;50.90
74809;DHT22;63338;39.544;2.596;2023-01-10T00:23:18;16.00;50.70
74809;DHT22;63338;39.544;2.596;2023-01-10T00:25:48;16.00;50.40
74809;DHT22;63338;39.544;2.596;2023-01-10T00:28:14;15.90;50.20
74809;DHT22;63338;39.544;2.596;2023-01-10T00:30:49;15.90;50.20
74809;DHT22;63338;39.544;2.596;2023-01-10T00:33:37;16.00;50.30
74809;DHT22;63338;39.544;2.596;2023-01-10T00:36:06;15.90;50.50
74809;DHT22;63338;39.544;2.596;2023-01-10T00:38:33;16.00;50.60
74809;DHT22;63338;39.544;2.596;2023-01-10T00:41:01;16.00;50.10
74809;DHT22;63338;39.544;2.596;2023-01-10T00:43:27;16.00;50.40
74809;DHT22;63338;39.544;2.596;2023-01-10T00:46:11;16.00;50.90
74809;DHT22;63338;39.544;2.596;2023-01-10T00:48:38;15.90;50.70
74809;DHT22;63338;39.544;2.596;2023-01-10T00:51:04;15.90;50.90
74809;DHT22;63338;39.544;2.596;2023-01-10T00:53:31;16.00;51.30
74809;DHT22;63338;39.544;2.596;2023-01-10T00:55:57;16.10;51.30
74809;DHT22;63338;39.544;2.596;2023-01-10T00:58:24;16.10;51.50
74809;DHT22;63338;39.544;2.596;2023-01-10T01:00:50;16.00;51.70
74809;DHT22;63338;39.544;2.596;2023-01-10T01:03:23;16.00;51.70
74809;DHT22;63338;39.544;2.596;2023-01-10T01:05:49;16.00;51.40
74809;DHT22;63338;39.544;2.596;2023-01-10T01:08:16;16.00;51.80
74809;DHT22;63338;39.544;2.596;2023-01-10T01:10:42;16.00;51.60
74809;DHT22;63338;39.544;2.596;2023-01-10T01:13:17;15.90;51.20
74809;DHT22;63338;39.544;2.596;2023-01-10T01:15:44;16.00;51.60
74809;DHT22;63338;39.544;2.596;2023-01-10T01:18:16;15.90;51.40
74809;DHT22;63338;39.544;2.596;2023-01-10T01:20:43;15.80;51.50
74809;DHT22;63338;39.544;2.596;2023-01-10T01:23:14;15.90;51.70
74809;DHT22;63338;39.544;2.596;2023-01-10T01:25:40;15.80;52.00
74809;DHT22;63338;39.544;2.596;2023-01-10T01:28:06;15.80;51.70
74809;DHT22;63338;39.544;2.596;2023-01-10T01:30:32;15.80;51.50
74809;DHT22;63338;39.544;2.596;2023-01-10T01:32:59;15.80;51.20
74809;DHT22;63338;39.544;2.596;2023-01-10T01:35:28;15.80;51.20
74809;DHT22;63338;39.544;2.596;2023-01-10T01:37:54;15.80;50.90
74809;DHT22;63338;39.544;2.596;2023-01-10T01:40:21;15.70;51.10
74809;DHT22;63338;39.544;2.596;2023-01-10T01:42:48;15.70;51.10
74809;DHT22;63338;39.544;2.596;2023-01-10T01:47:56;15.70;51.50
74809;DHT22;63338;39.544;2.596;2023-01-10T01:53:43;15.70;52.00
74809;DHT22;63338;39.544;2.596;2023-01-10T01:56:16;15.60;52.30
74809;DHT22;63338;39.544;2.596;2023-01-10T01:58:51;15.60;52.10
74809;DHT22;63338;39.544;2.596;2023-01-10T02:01:19;15.60;52.70
74809;DHT22;63338;39.544;2.596;2023-01-10T02:03:50;15.50;52.90
74809;DHT22;63338;39.544;2.596;2023-01-10T02:06:20;15.50;53.00
74809;DHT22;63338;39.544;2.596;2023-01-10T02:08:54;15.50;53.60
74809;DHT22;63338;39.544;2.596;2023-01-10T02:11:23;15.50;54.30
74809;DHT22;63338;39.544;2.596;2023-01-10T02:13:51;15.50;54.40
74809;DHT22;63338;39.544;2.596;2023-01-10T02:16:18;15.40;54.40
74809;DHT22;63338;39.544;2.596;2023-01-10T02:18:44;15.40;55.80
74809;DHT22;63338;39.544;2.596;2023-01-10T02:27:25;15.30;56.50
74809;DHT22;63338;39.544;2.596;2023-01-10T02:32:54;15.20;55.30
74809;DHT22;63338;39.544;2.596;2023-01-10T02:38:32;15.30;54.50
74809;DHT22;63338;39.544;2.596;2023-01-10T02:43:55;15.40;52.50
74809;DHT22;63338;39.544;2.596;2023-01-10T02:46:27;15.40;52.30
74809;DHT22;63338;39.544;2.596;2023-01-10T02:48:54;15.50;51.80
74809;DHT22;63338;39.544;2.596;2023-01-10T02:51:27;15.50;51.40
74809;DHT22;63338;39.544;2.596;2023-01-10T02:54:00;15.40;51.80
74809;DHT22;63338;39.544;2.596;2023-01-10T03:10:13;15.50;51.10
74809;DHT22;63338;39.544;2.596;2023-01-10T03:12:52;15.50;51.50
74809;DHT22;63338;39.544;2.596;2023-01-10T03:15:25;15.50;51.60
74809;DHT22;63338;39.544;2.596;2023-01-10T03:17:58;15.50;52.00
74809;DHT22;63338;39.544;2.596;2023-01-10T03:20:26;15.40;53.50
74809;DHT22;63338;39.544;2.596;2023-01-10T03:22:55;15.50;52.40
74809;DHT22;63338;39.544;2.596;2023-01-10T03:25:25;15.40;54.10
74809;DHT22;63338;39.544;2.596;2023-01-10T03:27:54;15.30;54.30
74809;DHT22;63338;39.544;2.596;2023-01-10T03:30:30;15.40;54.40
74809;DHT22;63338;39.544;2.596;2023-01-10T03:33:01;15.40;54.60
74809;DHT22;63338;39.544;2.596;2023-01-10T03:38:45;15.30;55.20
74809;DHT22;63338;39.544;2.596;2023-01-10T03:43:46;15.20;56.20
74809;DHT22;63338;39.544;2.596;2023-01-10T03:46:53;15.10;56.70
74809;DHT22;63338;39.544;2.596;2023-01-10T03:49:23;15.10;56.60
74809;DHT22;63338;39.544;2.596;2023-01-10T03:51:51;15.00;56.90
74809;DHT22;63338;39.544;2.596;2023-01-10T03:54:18;15.00;57.50
74809;DHT22;63338;39.544;2.596;2023-01-10T03:56:46;15.00;57.80
74809;DHT22;63338;39.544;2.596;2023-01-10T03:59:20;14.90;57.90
74809;DHT22;63338;39.544;2.596;2023-01-10T04:01:47;14.90;58.20
74809;DHT22;63338;39.544;2.596;2023-01-10T04:04:13;14.80;57.80
74809;DHT22;63338;39.544;2.596;2023-01-10T04:06:40;14.70;58.20
74809;DHT22;63338;39.544;2.596;2023-01-10T04:09:07;14.60;57.60
74809;DHT22;63338;39.544;2.596;2023-01-10T04:11:33;14.60;57.40
74809;DHT22;63338;39.544;2.596;2023-01-10T04:13:59;14.50;57.10
74809;DHT22;63338;39.544;2.596;2023-01-10T04:16:25;14.50;57.70
74809;DHT22;63338;39.544;2.596;2023-01-10T04:18:51;14.50;58.20
74809;DHT22;63338;39.544;2.596;2023-01-10T04:21:17;14.40;57.60
74809;DHT22;63338;39.544;2.596;2023-01-10T04:23:43;14.30;57.90
74809;DHT22;63338;39.544;2.596;2023-01-10T04:26:09;14.20;58.20
74809;DHT22;63338;39.544;2.596;2023-01-10T04:28:44;14.20;58.00
74809;DHT22;63338;39.544;2.596;2023-01-10T04:31:10;14.10;57.80
74809;DHT22;63338;39.544;2.596;2023-01-10T04:33:36;14.10;58.10
74809;DHT22;63338;39.544;2.596;2023-01-10T04:36:04;14.00;58.20
74809;DHT22;63338;39.544;2.596;2023-01-10T04:38:30;14.00;58.60
74809;DHT22;63338;39.544;2.596;2023-01-10T04:40:56;13.90;59.10
74809;DHT22;63338;39.544;2.596;2023-01-10T04:43:23;13.80;58.90
74809;DHT22;63338;39.544;2.596;2023-01-10T04:45:50;13.80;59.30
74809;DHT22;63338;39.544;2.596;2023-01-10T04:48:16;13.70;59.60
74809;DHT22;63338;39.544;2.596;2023-01-10T04:50:48;13.70;59.60
74809;DHT22;63338;39.544;2.596;2023-01-10T04:53:15;13.60;60.10
74809;DHT22;63338;39.544;2.596;2023-01-10T04:55:41;13.50;60.60
74809;DHT22;63338;39.544;2.596;2023-01-10T04:58:07;13.40;60.80
74809;DHT22;63338;39.544;2.596;2023-01-10T05:00:33;13.50;61.20
74809;DHT22;63338;39.544;2.596;2023-01-10T05:02:59;13.50;61.00
74809;DHT22;63338;39.544;2.596;2023-01-10T05:05:26;13.50;61.00
74809;DHT22;63338;39.544;2.596;2023-01-10T05:07:53;13.40;61.50
74809;DHT22;63338;39.544;2.596;2023-01-10T05:10:19;13.40;61.50
74809;DHT22;63338;39.544;2.596;2023-01-10T05:12:48;13.30;61.70
74809;DHT22;63338;39.544;2.596;2023-01-10T05:15:14;13.30;62.00
74809;DHT22;63338;39.544;2.596;2023-01-10T05:17:40;13.30;62.00
74809;DHT22;63338;39.544;2.596;2023-01-10T05:20:10;13.30;62.50
74809;DHT22;63338;39.544;2.596;2023-01-10T05:22:50;13.10;62.50
74809;DHT22;63338;39.544;2.596;2023-01-10T05:25:19;13.10;62.60
74809;DHT22;63338;39.544;2.596;2023-01-10T05:27:46;13.10;62.80
74809;DHT22;63338;39.544;2.596;2023-01-10T05:30:13;13.10;62.80
74809;DHT22;63338;39.544;2.596;2023-01-10T05:32:40;13.10;62.90
74809;DHT22;63338;39.544;2.596;2023-01-10T05:35:06;12.90;63.20
74809;DHT22;63338;39.544;2.596;2023-01-10T05:37:33;12.90;63.70
74809;DHT22;63338;39.544;2.596;2023-01-10T05:39:59;12.90;63.90
74809;DHT22;63338;39.544;2.596;2023-01-10T05:42:25;12.80;63.90
74809;DHT22;63338;39.544;2.596;2023-01-10T05:44:51;12.80;64.00
74809;DHT22;63338;39.544;2.596;2023-01-10T05:47:18;12.60;65.60
74809;DHT22;63338;39.544;2.596;2023-01-10T05:49:45;12.50;65.50
74809;DHT22;63338;39.544;2.596;2023-01-10T05:52:13;12.50;65.60
74809;DHT22;63338;39.544;2.596;2023-01-10T05:54:39;12.50;66.10
74809;DHT22;63338;39.544;2.596;2023-01-10T05:57:06;12.50;66.30
74809;DHT22;63338;39.544;2.596;2023-01-10T05:59:32;12.40;66.40
74809;DHT22;63338;39.544;2.596;2023-01-10T06:02:01;12.30;66.70
74809;DHT22;63338;39.544;2.596;2023-01-10T06:04:30;12.10;66.70
74809;DHT22;63338;39.544;2.596;2023-01-10T06:06:59;12.20;66.70
74809;DHT22;63338;39.544;2.596;2023-01-10T06:09:25;12.20;66.60
74809;DHT22;63338;39.544;2.596;2023-01-10T06:11:51;12.20;66.80
74809;DHT22;63338;39.544;2.596;2023-01-10T06:14:17;12.10;66.90
74809;DHT22;63338;39.544;2.596;2023-01-10T06:16:45;12.00;67.20
74809;DHT22;63338;39.544;2.596;2023-01-10T06:19:11;11.90;67.20
74809;DHT22;63338;39.544;2.596;2023-01-10T06:21:37;11.90;67.10
74809;DHT22;63338;39.544;2.596;2023-01-10T06:24:03;11.90;67.80
74809;DHT22;63338;39.544;2.596;2023-01-10T06:26:30;11.90;68.70
74809;DHT22;63338;39.544;2.596;2023-01-10T06:28:56;11.80;68.80
74809;DHT22;63338;39.544;2.596;2023-01-10T06:31:31;11.70;69.10
74809;DHT22;63338;39.544;2.596;2023-01-10T06:34:07;11.90;69.30
74809;DHT22;63338;39.544;2.596;2023-01-10T06:36:34;12.00;68.60
74809;DHT22;63338;39.544;2.596;2023-01-10T06:39:01;12.10;68.50
74809;DHT22;63338;39.544;2.596;2023-01-10T06:41:31;12.50;67.70
74809;DHT22;63338;39.544;2.596;2023-01-10T06:43:58;12.40;67.70
74809;DHT22;63338;39.544;2.596;2023-01-10T06:46:25;12.40;67.70
74809;DHT22;63338;39.544;2.596;2023-01-10T06:48:51;12.40;67.80
74809;DHT22;63338;39.544;2.596;2023-01-10T06:51:17;12.20;68.10
74809;DHT22;63338;39.544;2.596;2023-01-10T06:53:44;12.30;68.30
74809;DHT22;63338;39.544;2.596;2023-01-10T06:56:10;12.40;68.40
74809;DHT22;63338;39.544;2.596;2023-01-10T06:58:37;12.10;68.90
74809;DHT22;63338;39.544;2.596;2023-01-10T07:01:13;12.10;69.00
74809;DHT22;63338;39.544;2.596;2023-01-10T07:03:39;12.10;69.00
74809;DHT22;63338;39.544;2.596;2023-01-10T07:06:07;12.10;69.00
74809;DHT22;63338;39.544;2.596;2023-01-10T07:08:38;12.00;69.10
74809;DHT22;63338;39.544;2.596;2023-01-10T07:11:05;12.10;69.10
74809;DHT22;63338;39.544;2.596;2023-01-10T07:13:34;12.00;69.20
74809;DHT22;63338;39.544;2.596;2023-01-10T07:18:34;11.90;69.30
74809;DHT22;63338;39.544;2.596;2023-01-10T07:21:01;12.00;69.10
74809;DHT22;63338;39.544;2.596;2023-01-10T07:23:28;12.10;69.10
74809;DHT22;63338;39.544;2.596;2023-01-10T07:26:06;12.00;69.40
74809;DHT22;63338;39.544;2.596;2023-01-10T07:28:43;12.10;69.30
74809;DHT22;63338;39.544;2.596;2023-01-10T07:31:11;12.10;69.20
74809;DHT22;63338;39.544;2.596;2023-01-10T07:33:38;12.20;69.30
74809;DHT22;63338;39.544;2.596;2023-01-10T07:36:04;12.10;69.00
74809;DHT22;63338;39.544;2.596;2023-01-10T07:38:31;12.30;69.20
74809;DHT22;63338;39.544;2.596;2023-01-10T07:40:57;12.30;69.20
74809;DHT22;63338;39.544;2.596;2023-01-10T07:43:26;12.30;69.30
74809;DHT22;63338;39.544;2.596;2023-01-10T07:45:52;12.30;69.20
74809;DHT22;63338;39.544;2.596;2023-01-10T07:48:18;12.40;69.40
74809;DHT22;63338;39.544;2.596;2023-01-10T07:50:44;12.60;69.30
74809;DHT22;63338;39.544;2.596;2023-01-10T07:53:11;12.70;68.00
74809;DHT22;63338;39.544;2.596;2023-01-10T07:55:37;12.80;68.00
74809;DHT22;63338;39.544;2.596;2023-01-10T07:58:05;13.00;67.90
74809;DHT22;63338;39.544;2.596;2023-01-10T08:00:33;13.10;67.70
74809;DHT22;63338;39.544;2.596;2023-01-10T08:03:02;13.30;67.50
74809;DHT22;63338;39.544;2.596;2023-01-10T08:05:31;13.30;67.40
74809;DHT22;63338;39.544;2.596;2023-01-10T08:08:08;13.40;67.00
74809;DHT22;63338;39.544;2.596;2023-01-10T08:10:35;13.40;67.00
74809;DHT22;63338;39.544;2.596;2023-01-10T08:13:02;13.60;66.80
74809;DHT22;63338;39.544;2.596;2023-01-10T08:15:29;13.60;65.90
74809;DHT22;63338;39.544;2.596;2023-01-10T08:18:02;13.80;64.50
74809;DHT22;63338;39.544;2.596;2023-01-10T08:20:29;13.90;63.80
74809;DHT22;63338;39.544;2.596;2023-01-10T08:22:59;14.00;63.40
74809;DHT22;63338;39.544;2.596;2023-01-10T08:25:25;14.10;63.00
74809;DHT22;63338;39.544;2.596;2023-01-10T08:27:52;14.20;63.00
74809;DHT22;63338;39.544;2.596;2023-01-10T08:30:18;14.30;62.80
74809;DHT22;63338;39.544;2.596;2023-01-10T08:32:44;14.40;62.90
74809;DHT22;63338;39.544;2.596;2023-01-10T08:35:11;14.50;62.80
74809;DHT22;63338;39.544;2.596;2023-01-10T08:37:37;14.60;62.30
74809;DHT22;63338;39.544;2.596;2023-01-10T08:40:03;14.70;62.30
74809;DHT22;63338;39.544;2.596;2023-01-10T08:42:29;14.80;62.50
74809;DHT22;63338;39.544;2.596;2023-01-10T08:44:55;14.90;63.50
74809;DHT22;63338;39.544;2.596;2023-01-10T08:47:22;15.50;61.40
74809;DHT22;63338;39.544;2.596;2023-01-10T08:49:48;16.50;59.90
74809;DHT22;63338;39.544;2.596;2023-01-10T08:52:15;17.40;57.80
74809;DHT22;63338;39.544;2.596;2023-01-10T08:54:42;18.60;55.00
74809;DHT22;63338;39.544;2.596;2023-01-10T08:57:08;19.60;52.50
74809;DHT22;63338;39.544;2.596;2023-01-10T08:59:34;20.50;51.40
74809;DHT22;63338;39.544;2.596;2023-01-10T09:02:00;21.40;48.40
74809;DHT22;63338;39.544;2.596;2023-01-10T09:04:32;22.00;47.90
74809;DHT22;63338;39.544;2.596;2023-01-10T09:06:58;22.80;46.90
74809;DHT22;63338;39.544;2.596;2023-01-10T09:09:25;23.10;46.20
74809;DHT22;63338;39.544;2.596;2023-01-10T09:11:51;23.40;46.40
74809;DHT22;63338;39.544;2.596;2023-01-10T09:14:17;23.70;45.60
74809;DHT22;63338;39.544;2.596;2023-01-10T09:16:43;23.90;45.20
74809;DHT22;63338;39.544;2.596;2023-01-10T09:19:09;24.20;45.40
74809;DHT22;63338;39.544;2.596;2023-01-10T09:21:35;24.50;44.80
74809;DHT22;63338;39.544;2.596;2023-01-10T09:24:01;25.00;44.10
74809;DHT22;63338;39.544;2.596;2023-01-10T09:26:30;25.20;43.40
74809;DHT22;63338;39.544;2.596;2023-01-10T09:28:56;25.40;43.40
74809;DHT22;63338;39.544;2.596;2023-01-10T09:31:23;25.40;43.40
74809;DHT22;63338;39.544;2.596;2023-01-10T09:33:49;25.70;43.10
74809;DHT22;63338;39.544;2.596;2023-01-10T09:36:18;25.60;42.60
74809;DHT22;63338;39.544;2.596;2023-01-10T09:38:44;25.80;42.60
74809;DHT22;63338;39.544;2.596;2023-01-10T09:44:20;26.40;40.90
74809;DHT22;63338;39.544;2.596;2023-01-10T09:47:10;26.50;40.90
74809;DHT22;63338;39.544;2.596;2023-01-10T09:52:37;27.10;40.90
74809;DHT22;63338;39.544;2.596;2023-01-10T09:55:31;27.30;40.80
74809;DHT22;63338;39.544;2.596;2023-01-10T09:58:03;27.10;40.40
74809;DHT22;63338;39.544;2.596;2023-01-10T10:00:44;27.20;40.70
74809;DHT22;63338;39.544;2.596;2023-01-10T10:03:21;27.00;40.50
74809;DHT22;63338;39.544;2.596;2023-01-10T10:05:48;26.90;40.70
74809;DHT22;63338;39.544;2.596;2023-01-10T10:08:16;26.90;40.40
74809;DHT22;63338;39.544;2.596;2023-01-10T10:25:13;27.40;38.30
74809;DHT22;63338;39.544;2.596;2023-01-10T10:27:38;27.40;39.40
74809;DHT22;63338;39.544;2.596;2023-01-10T10:30:48;27.50;39.10
74809;DHT22;63338;39.544;2.596;2023-01-10T10:33:32;27.80;38.70
74809;DHT22;63338;39.544;2.596;2023-01-10T10:36:12;28.00;38.70
74809;DHT22;63338;39.544;2.596;2023-01-10T10:38:43;28.20;37.70
74809;DHT22;63338;39.544;2.596;2023-01-10T10:41:42;28.10;37.60
74809;DHT22;63338;39.544;2.596;2023-01-10T10:47:01;27.90;37.30
74809;DHT22;63338;39.544;2.596;2023-01-10T10:49:55;28.10;37.10
74809;DHT22;63338;39.544;2.596;2023-01-10T10:52:29;28.30;37.10
74809;DHT22;63338;39.544;2.596;2023-01-10T10:54:57;28.50;36.80
74809;DHT22;63338;39.544;2.596;2023-01-10T10:57:29;28.60;36.80
74809;DHT22;63338;39.544;2.596;2023-01-10T11:00:02;28.60;36.50
74809;DHT22;63338;39.544;2.596;2023-01-10T11:02:31;28.40;36.40
74809;DHT22;63338;39.544;2.596;2023-01-10T11:05:02;28.40;36.80
74809;DHT22;63338;39.544;2.596;2023-01-10T11:07:33;28.40;36.60
74809;DHT22;63338;39.544;2.596;2023-01-10T11:10:03;28.20;36.50
74809;DHT22;63338;39.544;2.596;2023-01-10T11:12:40;28.20;36.80
74809;DHT22;63338;39.544;2.596;2023-01-10T11:15:41;28.00;37.40
74809;DHT22;63338;39.544;2.596;2023-01-10T11:18:25;28.20;36.90
74809;DHT22;63338;39.544;2.596;2023-01-10T11:26:08;29.00;36.30
74809;DHT22;63338;39.544;2.596;2023-01-10T11:28:39;29.20;35.50
74809;DHT22;63338;39.544;2.596;2023-01-10T11:31:05;29.10;35.10
74809;DHT22;63338;39.544;2.596;2023-01-10T11:33:37;29.00;35.50
74809;DHT22;63338;39.544;2.596;2023-01-10T11:36:08;29.00;35.80
74809;DHT22;63338;39.544;2.596;2023-01-10T11:38:34;29.20;35.10
74809;DHT22;63338;39.544;2.596;2023-01-10T11:41:03;29.20;35.20
74809;DHT22;63338;39.544;2.596;2023-01-10T11:43:38;29.30;35.30
74809;DHT22;63338;39.544;2.596;2023-01-10T11:46:15;29.30;34.60
74809;DHT22;63338;39.544;2.596;2023-01-10T11:48:59;29.30;34.50
74809;DHT22;63338;39.544;2.596;2023-01-10T11:51:30;29.30;34.30
74809;DHT22;63338;39.544;2.596;2023-01-10T11:54:00;29.20;35.00
74809;DHT22;63338;39.544;2.596;2023-01-10T11:56:33;29.00;35.10
74809;DHT22;63338;39.544;2.596;2023-01-10T11:59:07;29.00;35.20
74809;DHT22;63338;39.544;2.596;2023-01-10T12:01:41;29.00;35.80
74809;DHT22;63338;39.544;2.596;2023-01-10T12:04:14;29.00;35.20
74809;DHT22;63338;39.544;2.596;2023-01-10T12:06:52;29.10;34.80
74809;DHT22;63338;39.544;2.596;2023-01-10T12:09:40;28.90;34.70
74809;DHT22;63338;39.544;2.596;2023-01-10T12:12:28;28.80;35.00
74809;DHT22;63338;39.544;2.596;2023-01-10T12:14:57;28.60;35.60
74809;DHT22;63338;39.544;2.596;2023-01-10T12:17:29;28.40;35.70
74809;DHT22;63338;39.544;2.596;2023-01-10T12:19:58;28.30;35.70
74809;DHT22;63338;39.544;2.596;2023-01-10T12:22:44;28.10;35.80
74809;DHT22;63338;39.544;2.596;2023-01-10T12:25:26;27.70;35.70
74809;DHT22;63338;39.544;2.596;2023-01-10T12:27:56;27.70;35.70
74809;DHT22;63338;39.544;2.596;2023-01-10T12:30:30;27.60;35.60
74809;DHT22;63338;39.544;2.596;2023-01-10T12:33:00;27.60;35.50
74809;DHT22;63338;39.544;2.596;2023-01-10T12:36:10;27.50;35.10
74809;DHT22;63338;39.544;2.596;2023-01-10T12:38:32;27.50;35.70
74809;DHT22;63338;39.544;2.596;2023-01-10T12:41:45;27.40;35.00
74809;DHT22;63338;39.544;2.596;2023-01-10T12:44:44;27.20;36.80
74809;DHT22;63338;39.544;2.596;2023-01-10T12:55:43;26.00;40.40
74809;DHT22;63338;39.544;2.596;2023-01-10T12:58:39;25.60;40.90
74809;DHT22;63338;39.544;2.596;2023-01-10T13:01:05;25.10;40.70
74809;DHT22;63338;39.544;2.596;2023-01-10T13:03:33;24.70;41.50
74809;DHT22;63338;39.544;2.596;2023-01-10T13:06:00;24.60;41.20
74809;DHT22;63338;39.544;2.596;2023-01-10T13:08:31;24.60;42.10
74809;DHT22;63338;39.544;2.596;2023-01-10T13:10:59;24.70;42.50
74809;DHT22;63338;39.544;2.596;2023-01-10T13:13:31;24.90;42.10
74809;DHT22;63338;39.544;2.596;2023-01-10T13:21:38;25.20;39.40
74809;DHT22;63338;39.544;2.596;2023-01-10T13:24:24;25.30;39.50
74809;DHT22;63338;39.544;2.596;2023-01-10T13:27:01;25.40;39.70
74809;DHT22;63338;39.544;2.596;2023-01-10T13:29:29;25.50;40.20
74809;DHT22;63338;39.544;2.596;2023-01-10T13:32:00;25.60;40.20
74809;DHT22;63338;39.544;2.596;2023-01-10T13:34:32;25.70;35.60
74809;DHT22;63338;39.544;2.596;2023-01-10T13:37:10;25.30;35.20
74809;DHT22;63338;39.544;2.596;2023-01-10T13:39:40;25.00;35.80
74809;DHT22;63338;39.544;2.596;2023-01-10T13:42:23;25.00;36.40
74809;DHT22;63338;39.544;2.596;2023-01-10T14:00:52;26.40;34.60
74809;DHT22;63338;39.544;2.596;2023-01-10T14:03:44;26.70;35.00
74809;DHT22;63338;39.544;2.596;2023-01-10T14:08:51;27.30;33.80
74809;DHT22;63338;39.544;2.596;2023-01-10T14:11:20;27.40;33.50
74809;DHT22;63338;39.544;2.596;2023-01-10T14:13:56;27.30;33.50
74809;DHT22;63338;39.544;2.596;2023-01-10T14:16:48;27.10;34.40
74809;DHT22;63338;39.544;2.596;2023-01-10T14:19:42;27.00;34.60
74809;DHT22;63338;39.544;2.596;2023-01-10T14:22:23;26.90;34.00
74809;DHT22;63338;39.544;2.596;2023-01-10T14:24:54;27.00;34.20
74809;DHT22;63338;39.544;2.596;2023-01-10T14:27:21;27.00;33.40
74809;DHT22;63338;39.544;2.596;2023-01-10T14:29:57;27.00;33.30
74809;DHT22;63338;39.544;2.596;2023-01-10T14:32:37;26.90;34.00
74809;DHT22;63338;39.544;2.596;2023-01-10T14:35:17;26.50;33.50
74809;DHT22;63338;39.544;2.596;2023-01-10T14:37:57;26.10;35.30
74809;DHT22;63338;39.544;2.596;2023-01-10T14:40:35;25.80;35.50
74809;DHT22;63338;39.544;2.596;2023-01-10T14:43:16;25.40;35.70
74809;DHT22;63338;39.544;2.596;2023-01-10T14:46:05;25.20;36.10
74809;DHT22;63338;39.544;2.596;2023-01-10T14:48:49;25.30;38.80
74809;DHT22;63338;39.544;2.596;2023-01-10T14:52:19;25.30;39.30
74809;DHT22;63338;39.544;2.596;2023-01-10T14:58:58;24.90;41.10
74809;DHT22;63338;39.544;2.596;2023-01-10T15:01:28;24.40;40.50
74809;DHT22;63338;39.544;2.596;2023-01-10T15:03:55;24.00;41.80
74809;DHT22;63338;39.544;2.596;2023-01-10T15:06:22;23.60;42.20
74809;DHT22;63338;39.544;2.596;2023-01-10T15:08:57;23.20;42.70
74809;DHT22;63338;39.544;2.596;2023-01-10T15:11:25;22.90;43.20
74809;DHT22;63338;39.544;2.596;2023-01-10T15:13:55;22.60;42.40
74809;DHT22;63338;39.544;2.596;2023-01-10T15:16:23;22.20;45.40
74809;DHT22;63338;39.544;2.596;2023-01-10T15:18:52;22.00;45.00
74809;DHT22;63338;39.544;2.596;2023-01-10T15:21:21;21.80;45.30
74809;DHT22;63338;39.544;2.596;2023-01-10T15:23:49;21.50;46.00
74809;DHT22;63338;39.544;2.596;2023-01-10T15:29:17;21.20;45.20
74809;DHT22;63338;39.544;2.596;2023-01-10T15:31:46;21.00;46.50
74809;DHT22;63338;39.544;2.596;2023-01-10T15:34:18;20.80;48.90
74809;DHT22;63338;39.544;2.596;2023-01-10T15:36:54;20.60;49.40
74809;DHT22;63338;39.544;2.596;2023-01-10T15:39:30;20.50;49.10
74809;DHT22;63338;39.544;2.596;2023-01-10T15:42:08;20.30;48.60
74809;DHT22;63338;39.544;2.596;2023-01-10T15:44:40;20.30;48.60
74809;DHT22;63338;39.544;2.596;2023-01-10T15:50:02;20.10;47.70
74809;DHT22;63338;39.544;2.596;2023-01-10T15:52:29;19.90;48.60
74809;DHT22;63338;39.544;2.596;2023-01-10T15:54:55;19.70;49.00
74809;DHT22;63338;39.544;2.596;2023-01-10T15:57:28;19.40;49.80
74809;DHT22;63338;39.544;2.596;2023-01-10T15:59:56;19.40;50.80
74809;DHT22;63338;39.544;2.596;2023-01-10T16:02:31;19.30;51.40
74809;DHT22;63338;39.544;2.596;2023-01-10T16:05:09;19.10;51.60
74809;DHT22;63338;39.544;2.596;2023-01-10T16:07:44;19.00;50.60
74809;DHT22;63338;39.544;2.596;2023-01-10T16:10:21;18.90;51.30
74809;DHT22;63338;39.544;2.596;2023-01-10T16:12:48;18.70;51.60
74809;DHT22;63338;39.544;2.596;2023-01-10T16:15:34;18.50;51.80
74809;DHT22;63338;39.544;2.596;2023-01-10T16:18:03;18.40;52.50
74809;DHT22;63338;39.544;2.596;2023-01-10T16:20:38;18.10;54.60
74809;DHT22;63338;39.544;2.596;2023-01-10T16:23:15;17.90;54.90
74809;DHT22;63338;39.544;2.596;2023-01-10T16:25:47;17.70;55.80
74809;DHT22;63338;39.544;2.596;2023-01-10T16:28:18;17.60;56.30
74809;DHT22;63338;39.544;2.596;2023-01-10T16:30:48;17.50;56.60
74809;DHT22;63338;39.544;2.596;2023-01-10T16:33:20;17.50;56.80
74809;DHT22;63338;39.544;2.596;2023-01-10T16:35:49;17.30;57.80
74809;DHT22;63338;39.544;2.596;2023-01-10T16:38:18;17.30;58.30
74809;DHT22;63338;39.544;2.596;2023-01-10T16:41:01;17.20;57.90
74809;DHT22;63338;39.544;2.596;2023-01-10T16:43:49;17.20;57.70
74809;DHT22;63338;39.544;2.596;2023-01-10T16:46:16;17.00;57.80
74809;DHT22;63338;39.544;2.596;2023-01-10T16:48:43;16.90;57.90
74809;DHT22;63338;39.544;2.596;2023-01-10T16:51:16;16.90;57.90
74809;DHT22;63338;39.544;2.596;2023-01-10T16:53:43;16.80;58.30
74809;DHT22;63338;39.544;2.596;2023-01-10T16:56:16;16.70;58.30
74809;DHT22;63338;39.544;2.596;2023-01-10T16:58:42;16.80;58.30
74809;DHT22;63338;39.544;2.596;2023-01-10T17:01:15;16.70;58.40
74809;DHT22;63338;39.544;2.596;2023-01-10T17:03:42;16.60;58.60
74809;DHT22;63338;39.544;2.596;2023-01-10T17:06:13;16.60;58.80
74809;DHT22;63338;39.544;2.596;2023-01-10T17:08:39;16.50;58.80
74809;DHT22;63338;39.544;2.596;2023-01-10T17:11:09;16.50;59.10
74809;DHT22;63338;39.544;2.596;2023-01-10T17:13:39;16.40;59.20
74809;DHT22;63338;39.544;2.596;2023-01-10T17:16:09;16.40;59.40
74809;DHT22;63338;39.544;2.596;2023-01-10T17:18:36;16.30;59.50
74809;DHT22;63338;39.544;2.596;2023-01-10T17:21:02;16.30;59.60
74809;DHT22;63338;39.544;2.596;2023-01-10T17:23:31;16.20;59.80
74809;DHT22;63338;39.544;2.596;2023-01-10T17:26:02;16.20;59.90
74809;DHT22;63338;39.544;2.596;2023-01-10T17:28:29;16.10;60.00
74809;DHT22;63338;39.544;2.596;2023-01-10T17:30:59;16.00;60.10
74809;DHT22;63338;39.544;2.596;2023-01-10T17:33:26;15.90;60.40
74809;DHT22;63338;39.544;2.596;2023-01-10T17:35:55;15.90;60.50
74809;DHT22;63338;39.544;2.596;2023-01-10T17:38:23;15.80;60.80
74809;DHT22;63338;39.544;2.596;2023-01-10T17:40:50;15.90;60.90
74809;DHT22;63338;39.544;2.596;2023-01-10T17:43:21;15.90;61.00
74809;DHT22;63338;39.544;2.596;2023-01-10T17:45:49;15.80;61.10
74809;DHT22;63338;39.544;2.596;2023-01-10T17:48:16;15.70;61.30